This is the latest recevied weather packets stored in our database for station/object OE5MMP-13. If no packets are shown the sender has not sent any weather packets the latest 10 day(s).
| Time | Temp. | Humidity | Pressure | Rain* | Wind** | Luminosity | Snow |
|---|---|---|---|---|---|---|---|
| 1788152610 | 18.33° C | 81% | 1017.7 hPa | 0.25 mm | - | 17 W/m² | - |
| 1788152010 | 18.33° C | 80% | 1017.6 hPa | 0 mm | - | 3 W/m² | - |
| 1788151409 | 17.78° C | 86% | 1015.9 hPa | 0 mm | - | 0 W/m² | - |
| 1788150809 | 17.78° C | 86% | 1015.3 hPa | 0 mm | - | 0 W/m² | - |
| 1788150209 | 17.22° C | 88% | 1015.6 hPa | 0 mm | - | 0 W/m² | - |
| 1788149610 | 17.22° C | 88% | 1015.8 hPa | 0 mm | - | 0 W/m² | - |
| 1788149011 | 17.22° C | 88% | 1015.7 hPa | 0 mm | - | 0 W/m² | - |
| 1788148409 | 17.22° C | 88% | 1015.5 hPa | 0 mm | - | 0 W/m² | - |
| 1788147810 | 17.22° C | 88% | 1015.5 hPa | 0 mm | - | 0 W/m² | - |
| 1788147209 | 17.22° C | 88% | 1015.4 hPa | 0 mm | - | 0 W/m² | - |
| 1788146609 | 17.22° C | 87% | 1015.7 hPa | 0 mm | - | 0 W/m² | - |
| 1788146010 | 17.22° C | 87% | 1015.9 hPa | 0 mm | - | 0 W/m² | - |
| 1788145409 | 17.22° C | 87% | 1015.8 hPa | 0 mm | - | 0 W/m² | - |
| 1788144812 | 17.22° C | 86% | 1015.7 hPa | 0 mm | - | 0 W/m² | - |
| 1788144209 | 17.22° C | 85% | 1015.7 hPa | 0.25 mm | - | 0 W/m² | - |
| 1788143624 | 17.78° C | 85% | 1015.6 hPa | 0.25 mm | - | 0 W/m² | - |
| 1788143009 | 17.22° C | 87% | 1015.6 hPa | 0.25 mm | - | 0 W/m² | - |
| 1788142409 | 17.22° C | 87% | 1016.2 hPa | 0.51 mm | - | 0 W/m² | - |
| 1788141209 | 17.22° C | 88% | 1016 hPa | 3.81 mm | - | 0 W/m² | - |
| 1788140609 | 17.22° C | 88% | 1016.2 hPa | 6.6 mm | - | 0 W/m² | - |
| 1788140009 | 17.78° C | 88% | 1016.2 hPa | 6.6 mm | - | 0 W/m² | - |
| 1788139409 | 17.78° C | 87% | 1016.3 hPa | 6.6 mm | - | 0 W/m² | - |
| 1788138809 | 17.78° C | 86% | 1016.6 hPa | 6.35 mm | - | 0 W/m² | - |
| 1788138208 | 18.33° C | 84% | 1016.8 hPa | 5.08 mm | - | 0 W/m² | - |
| 1788137609 | 18.89° C | 78% | 1016.8 hPa | 3.05 mm | - | 0 W/m² | - |
* Rain latest hour (hover to see other rain measurements)
** Current wind speed in m/s (hover to see current wind gust speed)